createdAt,value
2022-10-19T00:02:13.931Z,10.70
2022-10-19T00:05:02.301Z,10.70
2022-10-19T00:07:52.042Z,10.60
2022-10-19T00:10:42.003Z,10.60
2022-10-19T00:13:30.349Z,10.50
2022-10-19T00:16:20.121Z,10.50
2022-10-19T00:19:12.434Z,10.50
2022-10-19T00:22:00.731Z,10.50
2022-10-19T00:24:50.459Z,10.40
2022-10-19T00:27:38.951Z,10.30
2022-10-19T00:30:27.280Z,10.30
2022-10-19T00:33:20.861Z,10.20
2022-10-19T00:36:17.020Z,10.20
2022-10-19T00:39:07.565Z,10.20
2022-10-19T00:41:57.278Z,10.20
2022-10-19T00:45:14.325Z,10.10
2022-10-19T00:48:02.686Z,10.20
2022-10-19T00:50:53.852Z,10.10
2022-10-19T00:53:42.440Z,10.10
2022-10-19T00:56:30.884Z,10.20
2022-10-19T00:59:22.361Z,10.30
2022-10-19T01:02:11.089Z,10.30
2022-10-19T01:05:00.404Z,10.40
2022-10-19T01:07:48.742Z,10.50
2022-10-19T01:10:44.481Z,10.50
2022-10-19T01:13:44.142Z,10.50
2022-10-19T01:16:43.668Z,10.60
2022-10-19T01:19:58.830Z,10.60
2022-10-19T01:23:06.954Z,10.70
2022-10-19T01:26:02.115Z,10.80
2022-10-19T01:29:04.761Z,10.80
2022-10-19T01:31:59.908Z,10.90
2022-10-19T01:34:53.103Z,10.90
2022-10-19T01:38:06.876Z,11.00
2022-10-19T01:40:58.949Z,11.00
2022-10-19T01:43:55.071Z,11.00
2022-10-19T01:46:45.973Z,11.10
2022-10-19T01:49:42.540Z,11.10
2022-10-19T01:52:33.563Z,11.10
2022-10-19T01:55:23.376Z,11.10
2022-10-19T01:58:15.061Z,11.20
2022-10-19T02:01:06.902Z,11.20
2022-10-19T02:03:56.083Z,11.20
2022-10-19T02:06:45.911Z,11.20
2022-10-19T02:09:34.247Z,11.10
2022-10-19T02:12:23.476Z,11.10
2022-10-19T02:15:16.008Z,11.10
2022-10-19T02:18:07.092Z,11.10
2022-10-19T02:20:55.410Z,11.10
2022-10-19T02:23:45.136Z,11.00
2022-10-19T02:26:34.099Z,11.00
2022-10-19T02:29:22.455Z,11.00
2022-10-19T02:32:11.521Z,11.00
2022-10-19T02:34:59.860Z,10.90
2022-10-19T02:37:48.242Z,10.90
2022-10-19T02:40:43.608Z,10.90
2022-10-19T02:43:35.482Z,10.90
2022-10-19T02:46:30.069Z,10.80
2022-10-19T02:49:19.105Z,10.80
2022-10-19T02:52:09.622Z,10.70
2022-10-19T02:54:57.978Z,10.70
2022-10-19T02:57:47.765Z,10.80
2022-10-19T03:00:36.170Z,10.80
2022-10-19T03:03:24.566Z,10.80
2022-10-19T03:06:13.076Z,10.90
2022-10-19T03:09:01.363Z,10.90
2022-10-19T03:11:49.766Z,10.90
2022-10-19T03:14:39.426Z,11.00
2022-10-19T03:17:27.792Z,11.00
2022-10-19T03:20:16.215Z,11.00
2022-10-19T03:23:04.671Z,11.00
2022-10-19T03:25:53.006Z,11.10
2022-10-19T03:28:41.506Z,11.00
2022-10-19T03:31:31.246Z,11.00
2022-10-19T03:34:19.575Z,11.10
2022-10-19T03:37:08.686Z,11.10
2022-10-19T03:39:57.012Z,11.10
2022-10-19T03:42:45.347Z,11.10
2022-10-19T03:45:33.919Z,11.20
2022-10-19T03:48:23.596Z,11.20
2022-10-19T03:51:13.829Z,11.30
2022-10-19T03:54:03.872Z,11.30
2022-10-19T03:56:52.192Z,11.30
2022-10-19T03:59:40.509Z,11.40
2022-10-19T04:02:28.842Z,11.40
2022-10-19T04:05:18.624Z,11.40
2022-10-19T04:08:07.385Z,11.50
2022-10-19T04:11:00.363Z,11.50
2022-10-19T04:13:49.569Z,11.60
2022-10-19T04:16:37.896Z,11.70
2022-10-19T04:19:26.392Z,11.70
2022-10-19T04:22:16.976Z,11.70
2022-10-19T04:25:06.464Z,11.60
2022-10-19T04:27:54.789Z,11.60
2022-10-19T04:30:43.174Z,11.60
2022-10-19T04:33:31.629Z,11.70
2022-10-19T04:36:20.110Z,11.70
2022-10-19T04:39:09.959Z,11.70
2022-10-19T04:41:58.297Z,11.70
2022-10-19T04:44:46.636Z,11.80
2022-10-19T04:47:35.125Z,11.70
2022-10-19T04:50:23.741Z,11.70
2022-10-19T04:53:12.141Z,11.70
2022-10-19T04:56:05.401Z,11.80
2022-10-19T04:58:55.829Z,11.70
2022-10-19T05:01:46.328Z,11.80
2022-10-19T05:04:35.736Z,11.80
2022-10-19T05:07:24.149Z,11.80
2022-10-19T05:10:12.825Z,11.80
2022-10-19T05:13:03.453Z,11.80
2022-10-19T05:15:57.427Z,11.90
2022-10-19T05:18:49.575Z,11.90
2022-10-19T05:21:37.904Z,11.90
2022-10-19T05:24:26.390Z,12.00
2022-10-19T05:27:14.728Z,12.00
2022-10-19T05:30:06.436Z,12.00
2022-10-19T05:32:54.773Z,12.00
2022-10-19T05:35:43.088Z,12.10
2022-10-19T05:38:31.387Z,12.10
2022-10-19T05:41:19.940Z,12.10
2022-10-19T05:44:08.398Z,12.10
2022-10-19T05:46:58.088Z,12.10
2022-10-19T05:49:46.450Z,12.10
2022-10-19T05:52:34.798Z,12.10
2022-10-19T05:55:23.148Z,12.10
2022-10-19T05:58:11.477Z,12.10
2022-10-19T06:01:00.877Z,12.20
2022-10-19T06:03:53.228Z,12.10
2022-10-19T06:06:42.289Z,12.10
2022-10-19T06:09:35.864Z,12.10
2022-10-19T06:12:25.115Z,12.10
2022-10-19T06:15:13.605Z,12.10
2022-10-19T06:18:02.023Z,12.20
2022-10-19T06:20:51.685Z,12.10
2022-10-19T06:26:34.969Z,12.20
2022-10-19T06:29:23.376Z,12.20
2022-10-19T06:32:11.708Z,12.20
2022-10-19T06:35:00.058Z,12.10
2022-10-19T06:37:49.791Z,12.10
2022-10-19T06:40:38.119Z,12.20
2022-10-19T06:43:26.713Z,12.20
2022-10-19T06:46:20.191Z,12.20
2022-10-19T06:49:08.629Z,12.20
2022-10-19T06:51:56.912Z,12.20
2022-10-19T06:54:46.589Z,12.30
2022-10-19T06:57:35.290Z,12.20
2022-10-19T07:00:23.968Z,12.20
2022-10-19T07:03:12.365Z,12.30
2022-10-19T07:06:02.110Z,12.30
2022-10-19T07:08:50.468Z,12.30
2022-10-19T07:11:45.722Z,12.30
2022-10-19T07:14:38.695Z,12.40
2022-10-19T07:17:27.114Z,12.40
2022-10-19T07:20:15.533Z,12.40
2022-10-19T07:23:03.857Z,12.40
2022-10-19T07:25:53.308Z,12.40
2022-10-19T07:28:45.774Z,12.40
2022-10-19T07:31:34.246Z,12.40
2022-10-19T07:34:25.426Z,12.40
2022-10-19T07:37:16.546Z,12.40
2022-10-19T07:40:05.306Z,12.40
2022-10-19T07:42:53.660Z,12.40
2022-10-19T07:45:43.436Z,12.50
2022-10-19T07:48:32.019Z,12.50
2022-10-19T07:51:20.871Z,12.60
2022-10-19T07:54:09.770Z,12.60
2022-10-19T07:56:58.081Z,12.60
2022-10-19T07:59:46.442Z,12.70
2022-10-19T08:02:54.632Z,12.70
2022-10-19T08:05:44.452Z,12.70
2022-10-19T08:08:33.309Z,12.70
2022-10-19T08:11:23.587Z,12.80
2022-10-19T08:14:11.959Z,12.80
2022-10-19T08:17:00.583Z,12.80
2022-10-19T08:19:50.294Z,12.90
2022-10-19T08:22:38.629Z,12.90
2022-10-19T08:25:26.965Z,12.90
2022-10-19T08:28:15.352Z,13.00
2022-10-19T08:31:11.109Z,12.90
2022-10-19T08:33:59.777Z,13.00
2022-10-19T08:36:49.504Z,13.10
2022-10-19T08:39:37.805Z,13.10
2022-10-19T08:42:33.148Z,13.10
2022-10-19T08:45:38.521Z,13.10
2022-10-19T08:48:29.984Z,13.10
2022-10-19T08:51:18.411Z,13.20
2022-10-19T08:54:15.741Z,13.20
2022-10-19T08:57:14.954Z,13.30
2022-10-19T09:00:09.482Z,13.40
2022-10-19T09:03:06.102Z,13.40
2022-10-19T09:06:00.528Z,13.40
2022-10-19T09:08:51.181Z,13.40
2022-10-19T09:11:47.307Z,13.40
2022-10-19T09:14:40.137Z,13.40
2022-10-19T09:17:29.792Z,13.40
2022-10-19T09:20:21.319Z,13.40
2022-10-19T09:23:21.091Z,13.50
2022-10-19T09:26:15.700Z,13.50
2022-10-19T09:29:11.567Z,13.50
2022-10-19T09:32:02.175Z,13.50
2022-10-19T09:34:53.788Z,13.50
2022-10-19T09:37:47.022Z,13.50
2022-10-19T09:40:36.548Z,13.50
2022-10-19T09:43:25.486Z,13.50
2022-10-19T09:46:31.970Z,13.60
2022-10-19T09:49:20.625Z,13.60
2022-10-19T09:52:24.829Z,13.60
2022-10-19T09:55:27.537Z,13.70
2022-10-19T09:58:19.837Z,13.70
2022-10-19T10:01:08.151Z,13.80
2022-10-19T10:04:06.565Z,13.70
2022-10-19T10:06:57.676Z,13.80
2022-10-19T10:09:46.372Z,13.90
2022-10-19T10:12:36.625Z,13.90
2022-10-19T10:15:27.586Z,14.10
2022-10-19T10:18:18.225Z,14.10
2022-10-19T10:21:15.267Z,14.20
2022-10-19T10:24:06.530Z,14.20
2022-10-19T10:26:57.633Z,14.20
2022-10-19T10:32:52.352Z,14.20
2022-10-19T10:35:40.909Z,14.20
2022-10-19T10:38:34.860Z,14.30
2022-10-19T10:41:24.987Z,14.40
2022-10-19T10:44:20.275Z,14.40
2022-10-19T10:47:16.209Z,14.20
2022-10-19T10:50:07.769Z,14.20
2022-10-19T10:52:59.829Z,14.20
2022-10-19T10:55:56.872Z,14.30
2022-10-19T10:58:51.238Z,14.30
2022-10-19T11:01:43.771Z,14.30
2022-10-19T11:04:38.317Z,14.40
2022-10-19T11:07:29.079Z,14.40
2022-10-19T11:10:24.524Z,14.60
2022-10-19T11:13:21.718Z,14.70
2022-10-19T11:16:15.157Z,14.80
2022-10-19T11:22:17.720Z,14.80
2022-10-19T11:25:25.056Z,14.90
2022-10-19T11:28:25.310Z,15.00
2022-10-19T11:31:19.929Z,15.00
2022-10-19T11:34:28.606Z,15.00
2022-10-19T11:37:25.962Z,15.00
2022-10-19T11:40:22.488Z,15.10
2022-10-19T11:43:20.426Z,15.10
2022-10-19T11:46:17.370Z,15.00
2022-10-19T11:49:14.885Z,15.00
2022-10-19T11:52:09.781Z,15.00
2022-10-19T11:55:05.489Z,14.90
2022-10-19T11:58:00.588Z,15.00
2022-10-19T12:00:56.643Z,15.00
2022-10-19T12:04:12.173Z,15.00
2022-10-19T12:07:12.454Z,15.00
2022-10-19T12:10:09.672Z,15.00
2022-10-19T12:13:03.070Z,15.00
2022-10-19T12:15:55.127Z,15.00
2022-10-19T12:18:47.258Z,15.10
2022-10-19T12:21:39.316Z,15.10
2022-10-19T12:24:30.737Z,15.10
2022-10-19T12:27:24.471Z,15.20
2022-10-19T12:30:16.717Z,15.20
2022-10-19T12:33:15.588Z,15.20
2022-10-19T12:36:14.143Z,15.20
2022-10-19T12:39:11.261Z,15.20
2022-10-19T12:42:10.678Z,15.20
2022-10-19T12:45:18.474Z,15.20
2022-10-19T12:48:23.029Z,15.30
2022-10-19T12:51:15.056Z,15.30
2022-10-19T12:54:10.681Z,15.40
2022-10-19T12:57:01.710Z,15.40
2022-10-19T13:00:01.279Z,15.70
2022-10-19T13:03:00.967Z,15.70
2022-10-19T13:05:59.510Z,15.80
2022-10-19T13:08:56.304Z,15.80
2022-10-19T13:12:22.133Z,15.70
2022-10-19T13:15:56.086Z,15.70
2022-10-19T13:19:10.836Z,15.60
2022-10-19T13:22:26.864Z,15.50
2022-10-19T13:25:33.525Z,15.50
2022-10-19T13:28:58.121Z,15.40
2022-10-19T13:31:46.514Z,15.30
2022-10-19T13:34:34.976Z,15.30
2022-10-19T13:37:24.763Z,15.30
2022-10-19T13:40:24.484Z,15.20
2022-10-19T13:43:20.728Z,15.20
2022-10-19T13:46:14.083Z,15.30
2022-10-19T13:49:32.767Z,15.20
2022-10-19T13:52:51.125Z,15.20
2022-10-19T13:56:03.218Z,15.20
2022-10-19T13:59:19.017Z,15.10
2022-10-19T14:02:51.984Z,15.00
2022-10-19T14:05:54.398Z,14.90
2022-10-19T14:09:15.183Z,14.90
2022-10-19T14:12:08.508Z,14.90
2022-10-19T14:14:57.627Z,14.90
2022-10-19T14:17:46.324Z,14.90
2022-10-19T14:20:42.431Z,14.90
2022-10-19T14:23:32.802Z,14.80
2022-10-19T14:26:24.397Z,14.80
2022-10-19T14:29:14.561Z,14.80
2022-10-19T14:32:03.390Z,14.70
2022-10-19T14:34:52.067Z,14.80
2022-10-19T14:37:45.238Z,14.70
2022-10-19T14:40:35.401Z,14.70
2022-10-19T14:43:26.963Z,14.70
2022-10-19T14:46:17.031Z,14.60
2022-10-19T14:49:06.899Z,14.60
2022-10-19T14:51:59.160Z,14.60
2022-10-19T14:54:51.906Z,14.60
2022-10-19T14:57:42.720Z,14.50
2022-10-19T15:00:34.051Z,14.50
2022-10-19T15:03:25.432Z,14.50
2022-10-19T15:06:20.551Z,14.50
2022-10-19T15:09:24.551Z,14.50
2022-10-19T15:12:28.958Z,14.50
2022-10-19T15:15:23.551Z,14.40
2022-10-19T15:18:43.475Z,14.40
2022-10-19T15:21:30.378Z,14.40
2022-10-19T15:24:28.326Z,14.30
2022-10-19T15:27:21.929Z,14.20
2022-10-19T15:30:26.821Z,14.10
2022-10-19T15:33:16.846Z,14.10
2022-10-19T15:36:08.561Z,14.10
2022-10-19T15:39:11.867Z,14.00
2022-10-19T15:42:35.800Z,14.00
2022-10-19T15:45:35.559Z,13.90
2022-10-19T15:48:50.061Z,13.90
2022-10-19T15:51:47.591Z,13.80
2022-10-19T15:54:35.947Z,13.80
2022-10-19T15:57:30.548Z,13.80
2022-10-19T16:00:20.304Z,13.70
2022-10-19T16:03:09.197Z,13.70
2022-10-19T16:05:58.943Z,13.70
2022-10-19T16:08:48.441Z,13.70
2022-10-19T16:11:36.795Z,13.60
2022-10-19T16:14:26.452Z,13.60
2022-10-19T16:17:15.924Z,13.50
2022-10-19T16:20:04.513Z,13.50
2022-10-19T16:22:54.251Z,13.40
2022-10-19T16:25:42.651Z,13.30
2022-10-19T16:28:30.953Z,13.20
2022-10-19T16:31:19.823Z,13.10
2022-10-19T16:34:08.143Z,13.00
2022-10-19T16:36:56.448Z,12.90
2022-10-19T16:39:46.126Z,12.90
2022-10-19T16:42:35.189Z,12.80
2022-10-19T16:45:23.656Z,12.70
2022-10-19T16:48:13.399Z,12.60
2022-10-19T16:51:24.795Z,12.60
2022-10-19T16:54:13.256Z,12.50
2022-10-19T16:57:07.143Z,12.40
2022-10-19T16:59:57.854Z,12.30
2022-10-19T17:02:46.632Z,12.30
2022-10-19T17:05:39.184Z,12.20
2022-10-19T17:08:36.714Z,12.20
2022-10-19T17:11:34.677Z,12.20
2022-10-19T17:14:24.382Z,12.20
2022-10-19T17:17:12.891Z,12.10
2022-10-19T17:20:01.280Z,12.00
2022-10-19T17:22:52.360Z,11.80
2022-10-19T17:25:47.299Z,11.60
2022-10-19T17:28:35.969Z,11.50
2022-10-19T17:31:26.357Z,11.30
2022-10-19T17:34:15.024Z,11.20
2022-10-19T17:37:03.378Z,11.10
2022-10-19T17:39:52.046Z,11.10
2022-10-19T17:42:40.508Z,11.00
2022-10-19T17:45:28.831Z,10.90
2022-10-19T17:48:19.047Z,10.90
2022-10-19T17:51:09.092Z,10.80
2022-10-19T17:53:59.091Z,10.80
2022-10-19T17:56:47.463Z,10.70
2022-10-19T17:59:52.087Z,10.70
2022-10-19T18:02:41.602Z,10.60
2022-10-19T18:05:31.401Z,10.50
2022-10-19T18:08:19.783Z,10.40
2022-10-19T18:11:10.277Z,10.40
2022-10-19T18:14:00.458Z,10.30
2022-10-19T18:16:48.913Z,10.30
2022-10-19T18:19:37.217Z,10.30
2022-10-19T18:22:26.965Z,10.20
2022-10-19T18:25:21.775Z,10.10
2022-10-19T18:28:14.353Z,10.10
2022-10-19T18:31:07.365Z,10.00
2022-10-19T18:33:58.044Z,9.90
2022-10-19T18:36:46.638Z,9.90
2022-10-19T18:39:36.371Z,9.80
2022-10-19T18:42:24.821Z,9.80
2022-10-19T18:45:13.187Z,9.80
2022-10-19T18:48:01.509Z,9.80
2022-10-19T18:50:50.026Z,9.80
2022-10-19T18:53:38.516Z,9.70
2022-10-19T18:56:29.438Z,9.70
2022-10-19T18:59:18.709Z,9.60
2022-10-19T19:02:13.627Z,9.60
2022-10-19T19:05:11.307Z,9.60
2022-10-19T19:07:59.765Z,9.60
2022-10-19T19:10:48.202Z,9.50
2022-10-19T19:13:38.695Z,9.40
2022-10-19T19:16:28.462Z,9.30
2022-10-19T19:19:18.440Z,9.20
2022-10-19T19:22:08.640Z,9.20
2022-10-19T19:24:57.215Z,9.10
2022-10-19T19:27:45.509Z,9.00
2022-10-19T19:30:35.240Z,9.00
2022-10-19T19:33:23.678Z,8.90
2022-10-19T19:36:14.344Z,8.90
2022-10-19T19:39:04.891Z,8.90
2022-10-19T19:41:53.297Z,8.90
2022-10-19T19:44:41.605Z,8.80
2022-10-19T19:47:31.284Z,8.80
2022-10-19T19:50:19.689Z,8.80
2022-10-19T19:53:08.044Z,8.80
2022-10-19T19:55:56.435Z,8.70
2022-10-19T19:58:46.228Z,8.60
2022-10-19T20:01:36.671Z,8.60
2022-10-19T20:04:26.436Z,8.60
2022-10-19T20:07:14.762Z,8.50
2022-10-19T20:10:03.107Z,8.50
2022-10-19T20:12:51.483Z,8.50
2022-10-19T20:15:40.475Z,8.50
2022-10-19T20:18:28.799Z,8.40
2022-10-19T20:21:19.273Z,8.30
2022-10-19T20:24:08.475Z,8.30
2022-10-19T20:26:57.119Z,8.20
2022-10-19T20:29:45.438Z,8.20
2022-10-19T20:32:34.120Z,8.10
2022-10-19T20:35:22.627Z,8.10
2022-10-19T20:38:12.274Z,8.10
2022-10-19T20:41:02.011Z,8.00
2022-10-19T20:43:53.729Z,8.00
2022-10-19T20:46:42.090Z,7.90
2022-10-19T20:49:30.429Z,7.90
2022-10-19T20:52:18.810Z,8.00
2022-10-19T20:55:09.452Z,8.00
2022-10-19T20:57:57.805Z,7.90
2022-10-19T21:00:46.113Z,7.90
2022-10-19T21:03:34.576Z,7.90
2022-10-19T21:06:25.123Z,7.80
2022-10-19T21:09:15.074Z,7.80
2022-10-19T21:12:04.946Z,7.70
2022-10-19T21:14:53.263Z,7.60
2022-10-19T21:17:41.594Z,7.60
2022-10-19T21:20:29.942Z,7.60
2022-10-19T21:23:18.282Z,7.70
2022-10-19T21:26:06.750Z,7.70
2022-10-19T21:28:56.850Z,7.70
2022-10-19T21:31:48.785Z,7.60
2022-10-19T21:34:37.588Z,7.60
2022-10-19T21:37:25.917Z,7.60
2022-10-19T21:40:14.385Z,7.50
2022-10-19T21:43:02.778Z,7.50
2022-10-19T21:45:52.541Z,7.40
2022-10-19T21:48:41.059Z,7.40
2022-10-19T21:51:35.090Z,7.40
2022-10-19T21:54:25.637Z,7.40
2022-10-19T21:57:14.052Z,7.40
2022-10-19T22:00:02.377Z,7.40
2022-10-19T22:02:52.085Z,7.30
2022-10-19T22:05:40.510Z,7.20
2022-10-19T22:08:28.920Z,7.20
2022-10-19T22:11:17.476Z,7.20
2022-10-19T22:14:06.178Z,7.10
2022-10-19T22:16:54.469Z,7.10
2022-10-19T22:19:44.122Z,7.10
2022-10-19T22:22:32.665Z,7.10
2022-10-19T22:25:21.152Z,7.10
2022-10-19T22:28:09.493Z,7.00
2022-10-19T22:30:59.485Z,7.00
2022-10-19T22:33:48.002Z,7.00
2022-10-19T22:36:37.939Z,6.90
2022-10-19T22:39:27.892Z,6.90
2022-10-19T22:42:16.429Z,6.90
2022-10-19T22:45:05.544Z,6.90
2022-10-19T22:47:53.817Z,6.90
2022-10-19T22:50:42.136Z,6.90
2022-10-19T22:53:31.761Z,6.90
2022-10-19T22:56:20.058Z,6.90
2022-10-19T22:59:09.134Z,6.80
2022-10-19T23:01:57.419Z,6.80
2022-10-19T23:04:45.733Z,6.80
2022-10-19T23:07:34.338Z,6.80
2022-10-19T23:10:24.437Z,6.70
2022-10-19T23:13:12.753Z,6.70
2022-10-19T23:16:01.108Z,6.70
2022-10-19T23:18:49.627Z,6.70
2022-10-19T23:21:37.953Z,6.70
2022-10-19T23:24:26.249Z,6.60
2022-10-19T23:27:16.134Z,6.60
2022-10-19T23:30:05.702Z,6.60
2022-10-19T23:32:53.970Z,6.60
2022-10-19T23:35:42.261Z,6.70
2022-10-19T23:38:30.581Z,6.70
2022-10-19T23:41:20.004Z,6.80
2022-10-19T23:44:10.935Z,6.80
2022-10-19T23:46:59.294Z,6.90
2022-10-19T23:49:47.703Z,6.90
2022-10-19T23:52:36.109Z,6.90
2022-10-19T23:55:24.474Z,6.90
2022-10-19T23:58:12.798Z,6.90
